createdAt,value
2024-03-04T00:00:01.476Z,13.40
2024-03-04T00:05:00.574Z,13.80
2024-03-04T00:10:00.665Z,13.60
2024-03-04T00:15:00.715Z,10.50
2024-03-04T00:20:00.889Z,11.50
2024-03-04T00:25:00.647Z,13.80
2024-03-04T00:30:00.581Z,9.80
2024-03-04T00:35:00.648Z,10.40
2024-03-04T00:40:00.732Z,9.10
2024-03-04T00:45:00.621Z,10.30
2024-03-04T00:50:00.653Z,11.30
2024-03-04T00:55:00.796Z,10.80
2024-03-04T01:00:01.255Z,11.60
2024-03-04T01:05:00.660Z,12.70
2024-03-04T01:10:00.737Z,8.60
2024-03-04T01:15:00.572Z,9.90
2024-03-04T01:20:00.637Z,8.10
2024-03-04T01:25:00.719Z,8.30
2024-03-04T01:30:00.623Z,11.10
2024-03-04T01:35:00.592Z,7.30
2024-03-04T01:40:00.772Z,8.80
2024-03-04T01:45:00.624Z,6.00
2024-03-04T01:50:00.908Z,6.60
2024-03-04T01:55:01.562Z,7.40
2024-03-04T02:00:01.372Z,5.00
2024-03-04T02:05:00.674Z,5.40
2024-03-04T02:10:01.638Z,6.50
2024-03-04T02:15:00.858Z,7.50
2024-03-04T02:20:08.236Z,7.30
2024-03-04T02:25:00.620Z,7.40
2024-03-04T02:30:00.730Z,7.40
2024-03-04T02:35:02.069Z,8.20
2024-03-04T02:40:02.235Z,6.30
2024-03-04T02:45:00.572Z,10.20
2024-03-04T02:50:00.647Z,7.60
2024-03-04T02:55:00.847Z,10.10
2024-03-04T03:00:02.265Z,8.60
2024-03-04T03:05:00.621Z,9.10
2024-03-04T03:10:01.389Z,11.60
2024-03-04T03:15:00.610Z,9.70
2024-03-04T03:20:01.120Z,6.50
2024-03-04T03:25:00.634Z,9.00
2024-03-04T03:30:00.591Z,7.30
2024-03-04T03:35:00.650Z,7.80
2024-03-04T03:40:01.313Z,6.90
2024-03-04T03:45:00.632Z,9.20
2024-03-04T03:50:00.606Z,7.10
2024-03-04T03:55:00.921Z,6.70
2024-03-04T04:00:01.502Z,6.90
2024-03-04T04:05:00.594Z,3.80
2024-03-04T04:10:00.752Z,6.30
2024-03-04T04:15:01.416Z,6.00
2024-03-04T04:20:00.617Z,5.40
2024-03-04T04:25:00.678Z,5.10
2024-03-04T04:30:00.652Z,5.00
2024-03-04T04:35:00.765Z,4.70
2024-03-04T04:40:00.683Z,5.50
2024-03-04T04:45:00.597Z,5.90
2024-03-04T04:50:00.590Z,3.50
2024-03-04T04:55:00.585Z,4.60
2024-03-04T05:00:01.190Z,6.20
2024-03-04T05:05:00.651Z,3.90
2024-03-04T05:10:00.728Z,6.00
2024-03-04T05:15:00.576Z,6.00
2024-03-04T05:20:00.592Z,4.80
2024-03-04T05:25:00.698Z,5.70
2024-03-04T05:30:00.643Z,4.00
2024-03-04T05:35:02.077Z,6.70
2024-03-04T05:40:00.640Z,2.80
2024-03-04T05:45:00.574Z,5.60
2024-03-04T05:50:03.405Z,4.20
2024-03-04T05:55:00.765Z,3.00
2024-03-04T06:00:02.572Z,6.90
2024-03-04T06:05:00.597Z,4.50
2024-03-04T06:10:00.961Z,4.60
2024-03-04T06:15:00.949Z,3.10
2024-03-04T06:20:00.698Z,4.00
2024-03-04T06:25:00.613Z,4.00
2024-03-04T06:30:01.339Z,4.50
2024-03-04T06:35:00.665Z,3.40
2024-03-04T06:40:00.697Z,4.80
2024-03-04T06:45:00.617Z,3.30
2024-03-04T06:50:00.648Z,2.50
2024-03-04T06:55:00.667Z,3.50
2024-03-04T07:00:01.430Z,2.40
2024-03-04T07:05:00.615Z,4.00
2024-03-04T07:10:00.675Z,4.80
2024-03-04T07:15:00.557Z,4.00
2024-03-04T07:20:00.860Z,3.30
2024-03-04T07:25:00.666Z,3.30
2024-03-04T07:30:03.291Z,5.60
2024-03-04T07:35:00.686Z,1.70
2024-03-04T07:40:00.760Z,3.30
2024-03-04T07:45:00.554Z,2.40
2024-03-04T07:50:00.885Z,3.70
2024-03-04T07:55:00.640Z,3.10
2024-03-04T08:00:01.192Z,3.40
2024-03-04T08:05:00.644Z,4.00
2024-03-04T08:10:00.884Z,2.10
2024-03-04T08:15:01.085Z,3.90
2024-03-04T08:20:02.591Z,3.90
2024-03-04T08:25:00.667Z,3.30
2024-03-04T08:30:00.772Z,3.20
2024-03-04T08:35:01.077Z,3.80
2024-03-04T08:40:00.944Z,4.80
2024-03-04T08:45:00.641Z,6.40
2024-03-04T08:50:00.647Z,4.30
2024-03-04T08:55:00.990Z,3.30
2024-03-04T09:00:01.173Z,3.70
2024-03-04T09:05:00.960Z,3.40
2024-03-04T09:10:00.676Z,3.40
2024-03-04T09:15:00.639Z,4.80
2024-03-04T09:20:00.595Z,3.80
2024-03-04T09:25:00.622Z,4.20
2024-03-04T09:30:00.732Z,2.90
2024-03-04T09:35:00.873Z,3.20
2024-03-04T09:40:00.704Z,4.00
2024-03-04T09:45:02.022Z,2.40
2024-03-04T09:50:01.032Z,3.70
2024-03-04T09:55:02.602Z,2.60
2024-03-04T10:00:02.669Z,4.70
2024-03-04T10:05:00.846Z,3.50
2024-03-04T10:10:00.809Z,2.50
2024-03-04T10:20:02.423Z,2.20
2024-03-04T10:25:03.051Z,3.20
2024-03-04T10:35:02.450Z,4.00
2024-03-04T10:40:00.704Z,3.30
2024-03-04T10:45:02.229Z,3.00
2024-03-04T10:50:01.061Z,3.00
2024-03-04T10:55:01.154Z,2.20
2024-03-04T11:05:05.795Z,2.20
2024-03-04T11:10:06.976Z,3.90
2024-03-04T11:15:05.790Z,1.60
2024-03-04T11:20:01.725Z,2.80
2024-03-04T11:25:02.229Z,2.30
2024-03-04T11:30:01.106Z,2.20
2024-03-04T11:35:02.539Z,2.80
2024-03-04T11:40:00.770Z,2.60
2024-03-04T11:45:01.511Z,2.10
2024-03-04T11:50:00.707Z,3.30
2024-03-04T11:55:00.879Z,2.40
2024-03-04T12:00:04.070Z,1.40
2024-03-04T12:05:00.603Z,2.60
2024-03-04T12:10:08.837Z,2.60
2024-03-04T12:15:00.613Z,3.20
2024-03-04T12:20:00.673Z,2.00
2024-03-04T12:25:06.031Z,2.80
2024-03-04T12:35:00.697Z,2.30
2024-03-04T12:40:02.933Z,2.10
2024-03-04T12:45:02.255Z,3.60
2024-03-04T12:50:01.449Z,2.60
2024-03-04T12:55:01.185Z,2.70
2024-03-04T13:00:02.149Z,2.00
2024-03-04T13:05:00.609Z,3.40
2024-03-04T13:10:00.767Z,3.20
2024-03-04T13:15:00.941Z,1.50
2024-03-04T13:20:01.141Z,1.80
2024-03-04T13:25:00.581Z,1.80
2024-03-04T13:30:03.239Z,2.60
2024-03-04T13:35:00.968Z,1.80
2024-03-04T13:40:00.579Z,2.80
2024-03-04T13:45:00.746Z,2.00
2024-03-04T13:50:00.667Z,1.90
2024-03-04T13:55:00.553Z,3.40
2024-03-04T14:00:02.673Z,2.50
2024-03-04T14:05:00.676Z,2.40
2024-03-04T14:10:00.624Z,2.20
2024-03-04T14:15:00.585Z,2.00
2024-03-04T14:20:01.553Z,3.30
2024-03-04T14:25:00.584Z,3.60
2024-03-04T14:30:00.813Z,2.20
2024-03-04T14:35:00.612Z,2.80
2024-03-04T14:40:00.576Z,2.50
2024-03-04T14:45:00.609Z,2.00
2024-03-04T14:50:00.620Z,3.20
2024-03-04T14:55:00.585Z,4.00
2024-03-04T15:00:02.225Z,3.10
2024-03-04T15:05:00.680Z,2.20
2024-03-04T15:10:00.622Z,2.80
2024-03-04T15:15:00.579Z,2.90
2024-03-04T15:20:00.625Z,2.90
2024-03-04T15:25:00.600Z,1.90
2024-03-04T15:30:00.771Z,1.90
2024-03-04T15:35:00.838Z,2.20
2024-03-04T15:40:01.049Z,2.30
2024-03-04T15:45:01.684Z,1.50
2024-03-04T15:50:00.640Z,2.00
2024-03-04T15:55:00.647Z,4.00
2024-03-04T16:00:01.163Z,2.90
2024-03-04T16:05:00.602Z,2.80
2024-03-04T16:10:00.699Z,2.90
2024-03-04T16:15:00.737Z,3.40
2024-03-04T16:20:00.614Z,3.30
2024-03-04T16:25:01.042Z,3.60
2024-03-04T16:30:01.352Z,3.10
2024-03-04T16:35:00.601Z,3.00
2024-03-04T16:40:00.921Z,5.00
2024-03-04T16:45:00.626Z,4.00
2024-03-04T16:50:01.799Z,2.80
2024-03-04T16:55:00.662Z,3.10
2024-03-04T17:00:01.317Z,4.90
2024-03-04T17:05:00.589Z,3.30
2024-03-04T17:10:00.639Z,3.80
2024-03-04T17:15:00.657Z,3.30
2024-03-04T17:20:00.857Z,3.10
2024-03-04T17:25:00.648Z,3.60
2024-03-04T17:30:00.644Z,4.50
2024-03-04T17:35:00.601Z,4.00
2024-03-04T17:40:01.097Z,3.60
2024-03-04T17:45:00.561Z,3.90
2024-03-04T17:50:00.730Z,4.20
2024-03-04T17:55:00.649Z,4.20
2024-03-04T18:00:01.290Z,5.60
2024-03-04T18:05:00.717Z,4.50
2024-03-04T18:10:00.762Z,7.80
2024-03-04T18:15:00.600Z,6.80
2024-03-04T18:20:00.620Z,6.10
2024-03-04T18:25:00.713Z,6.50
2024-03-04T18:30:00.809Z,6.60
2024-03-04T18:35:00.826Z,6.50
2024-03-04T18:40:00.589Z,6.40
2024-03-04T18:45:00.600Z,6.60
2024-03-04T18:50:00.962Z,7.40
2024-03-04T18:55:00.671Z,8.30
2024-03-04T19:00:02.541Z,7.10
2024-03-04T19:05:01.213Z,8.40
2024-03-04T19:10:00.586Z,10.70
2024-03-04T19:15:01.151Z,9.90
2024-03-04T19:20:00.579Z,7.70
2024-03-04T19:25:00.561Z,7.30
2024-03-04T19:30:00.712Z,7.40
2024-03-04T19:35:00.586Z,7.10
2024-03-04T19:40:00.649Z,6.80
2024-03-04T19:45:00.631Z,6.50
2024-03-04T19:50:00.637Z,6.20
2024-03-04T19:55:00.583Z,6.30
2024-03-04T20:00:01.494Z,6.90
2024-03-04T20:05:00.748Z,7.50
2024-03-04T20:10:01.035Z,7.30
2024-03-04T20:15:00.671Z,7.50
2024-03-04T20:20:00.667Z,8.10
2024-03-04T20:25:00.602Z,8.20
2024-03-04T20:30:00.650Z,8.90
2024-03-04T20:35:00.622Z,9.80
2024-03-04T20:40:00.633Z,8.90
2024-03-04T20:45:00.596Z,8.00
2024-03-04T20:50:00.751Z,9.30
2024-03-04T20:55:00.545Z,8.80
2024-03-04T21:00:01.409Z,9.60
2024-03-04T21:05:02.077Z,9.10
2024-03-04T21:10:00.585Z,13.90
2024-03-04T21:15:00.624Z,10.90
2024-03-04T21:20:00.701Z,13.30
2024-03-04T21:25:00.590Z,8.90
2024-03-04T21:30:00.609Z,11.40
2024-03-04T21:35:00.965Z,12.30
2024-03-04T21:40:01.081Z,11.70
2024-03-04T21:45:00.738Z,12.90
2024-03-04T21:50:00.747Z,12.30
2024-03-04T21:55:00.727Z,13.70
2024-03-04T22:00:01.217Z,14.50
2024-03-04T22:05:00.803Z,12.80
2024-03-04T22:10:00.589Z,15.70
2024-03-04T22:15:00.647Z,16.40
2024-03-04T22:20:00.647Z,16.10
2024-03-04T22:25:00.639Z,17.00
2024-03-04T22:30:00.724Z,15.80
2024-03-04T22:35:00.622Z,16.70
2024-03-04T22:40:00.561Z,19.20
2024-03-04T22:45:01.706Z,18.20
2024-03-04T22:50:00.640Z,17.00
2024-03-04T22:55:01.040Z,15.20
2024-03-04T23:00:01.483Z,20.20
2024-03-04T23:05:00.600Z,17.40
2024-03-04T23:10:00.793Z,18.90
2024-03-04T23:15:00.561Z,21.50
2024-03-04T23:20:00.975Z,17.30
2024-03-04T23:25:01.049Z,23.80
2024-03-04T23:30:02.239Z,23.60
2024-03-04T23:35:01.660Z,20.10
2024-03-04T23:40:02.663Z,21.50
2024-03-04T23:45:00.579Z,22.90
2024-03-04T23:50:00.840Z,26.00
2024-03-04T23:55:00.592Z,27.60
